Time;durP1;ratioP1;P1;durP2;ratioP2;P2;SDS_P1;SDS_P2;PMS_P1;PMS_P2;Temp;Humidity;BMP_temperature;BMP_pressure;BME280_temperature;BME280_humidity;BME280_pressure;Samples;Min_cycle;Max_cycle;Signal;HPM_P1;HPM_P2
2021/10/21 04:01:57;;;;;;;8.73;6.33;;;13.90;99.90;;;;;;5245037;23;20997;-70
2021/10/21 04:04:24;;;;;;;6.87;6.37;;;14.00;99.90;;;;;;4934450;29;20466;-70
2021/10/21 04:06:50;;;;;;;7.50;6.73;;;14.00;99.90;;;;;;4936569;29;20864;-70
2021/10/21 04:09:17;;;;;;;7.60;7.00;;;14.00;99.90;;;;;;4936408;29;20489;-70
2021/10/21 04:11:44;;;;;;;7.90;6.60;;;14.00;99.90;;;;;;4923323;29;20490;-70
2021/10/21 04:14:10;;;;;;;7.17;6.60;;;14.00;99.90;;;;;;4918514;29;20529;-71
2021/10/21 04:16:37;;;;;;;6.73;6.30;;;14.10;99.90;;;;;;4917589;29;20470;-71
2021/10/21 04:19:05;;;;;;;10.90;7.43;;;14.10;99.90;;;;;;4917959;29;20461;-70
2021/10/21 04:21:32;;;;;;;5.70;5.30;;;14.00;99.90;;;;;;4917779;29;20482;-71
2021/10/21 04:23:59;;;;;;;6.67;6.00;;;14.00;99.90;;;;;;4929190;29;21025;-71
2021/10/21 04:26:25;;;;;;;6.10;5.70;;;14.00;99.90;;;;;;4935872;29;20477;-70
2021/10/21 04:28:52;;;;;;;5.77;5.40;;;14.00;99.90;;;;;;4928724;29;20548;-70
2021/10/21 04:31:19;;;;;;;4.33;4.03;;;13.90;99.90;;;;;;4936476;29;21029;-70
2021/10/21 04:33:45;;;;;;;4.47;4.07;;;13.90;99.90;;;;;;4927031;29;20470;-71
2021/10/21 04:36:13;;;;;;;3.50;3.40;;;13.90;99.90;;;;;;4917208;29;20474;-70
2021/10/21 04:38:40;;;;;;;4.00;3.80;;;13.90;99.90;;;;;;4923634;29;20465;-71
2021/10/21 04:41:06;;;;;;;3.97;3.67;;;13.80;99.90;;;;;;4933486;29;20519;-72
2021/10/21 04:43:33;;;;;;;4.37;3.50;;;13.80;99.90;;;;;;4922543;29;20465;-71
2021/10/21 04:46:00;;;;;;;3.30;3.20;;;13.70;99.90;;;;;;4936493;29;20893;-71
2021/10/21 04:48:26;;;;;;;3.10;3.00;;;13.70;99.90;;;;;;4931578;29;20497;-70
2021/10/21 04:50:53;;;;;;;3.40;3.20;;;13.60;99.90;;;;;;4916536;29;20497;-70
2021/10/21 04:53:21;;;;;;;3.50;3.40;;;13.60;99.90;;;;;;4917917;29;20962;-70
2021/10/21 04:55:48;;;;;;;2.47;2.43;;;13.60;99.90;;;;;;4915912;29;20470;-71
2021/10/21 04:58:14;;;;;;;2.70;2.67;;;13.60;99.90;;;;;;4924141;29;20937;-70
2021/10/21 05:00:41;;;;;;;3.20;3.10;;;13.70;99.90;;;;;;4915828;29;20858;-70
2021/10/21 05:03:08;;;;;;;3.43;3.07;;;13.70;99.90;;;;;;4932763;29;20466;-71
2021/10/21 05:05:35;;;;;;;3.13;3.00;;;13.70;99.90;;;;;;4935538;29;20889;-70
2021/10/21 05:08:02;;;;;;;3.03;2.93;;;13.70;99.90;;;;;;4919374;29;20478;-71
2021/10/21 05:10:30;;;;;;;2.53;2.42;;;13.70;99.90;;;;;;4916210;29;20537;-70
2021/10/21 05:12:57;;;;;;;2.47;2.47;;;13.80;99.90;;;;;;4930753;29;20217;-70
2021/10/21 05:15:24;;;;;;;2.40;2.20;;;13.80;99.90;;;;;;4918012;29;20469;-71
2021/10/21 05:17:51;;;;;;;2.30;2.23;;;13.80;99.90;;;;;;4918753;29;20466;-71
2021/10/21 05:20:18;;;;;;;1.70;1.70;;;13.70;99.90;;;;;;4915951;29;21004;-71
2021/10/21 05:22:45;;;;;;;1.65;1.65;;;13.70;99.90;;;;;;4927799;29;20579;-71
2021/10/21 05:25:12;;;;;;;2.13;2.03;;;13.60;99.90;;;;;;4925910;29;20258;-71
2021/10/21 05:27:40;;;;;;;1.40;1.40;;;13.60;99.90;;;;;;4915329;29;20665;-71
2021/10/21 05:30:09;;;;;;;2.45;1.70;;;13.50;99.90;;;;;;4914864;29;20233;-71
2021/10/21 05:32:35;;;;;;;1.52;1.42;;;13.50;99.90;;;;;;4924187;29;20210;-71
2021/10/21 05:35:02;;;;;;;1.60;1.60;;;13.50;99.90;;;;;;4928444;29;20199;-71
2021/10/21 05:37:29;;;;;;;1.50;1.40;;;13.40;99.90;;;;;;4916063;29;20671;-71
2021/10/21 05:39:56;;;;;;;1.60;1.50;;;13.40;99.90;;;;;;4920279;29;20265;-72
2021/10/21 05:42:22;;;;;;;1.00;1.00;;;13.30;99.90;;;;;;4934442;29;20603;-72
2021/10/21 05:44:50;;;;;;;1.15;1.15;;;13.20;99.90;;;;;;4932904;29;20206;-71
2021/10/21 05:47:17;;;;;;;0.90;0.90;;;13.10;99.90;;;;;;4915939;29;20242;-71
2021/10/21 05:49:45;;;;;;;1.48;1.48;;;13.00;99.90;;;;;;4916517;29;20226;-71
2021/10/21 05:52:12;;;;;;;1.15;0.60;;;12.90;99.90;;;;;;4935001;29;20614;-72
2021/10/21 05:54:39;;;;;;;1.13;0.95;;;12.90;99.90;;;;;;4916790;29;20211;-72
2021/10/21 05:57:05;;;;;;;1.00;1.00;;;12.90;99.90;;;;;;4915173;29;20217;-72
2021/10/21 05:59:32;;;;;;;0.73;0.73;;;12.80;99.90;;;;;;4931305;29;20690;-72
2021/10/21 06:02:00;;;;;;;0.90;0.90;;;12.80;99.90;;;;;;4920674;29;20241;-71
2021/10/21 06:04:27;;;;;;;1.30;0.90;;;12.80;99.90;;;;;;4915631;29;20301;-72
2021/10/21 06:06:53;;;;;;;1.75;1.50;;;12.80;99.90;;;;;;4929242;29;20206;-71
2021/10/21 06:09:21;;;;;;;1.13;1.00;;;12.80;99.90;;;;;;4934067;29;20252;-71
2021/10/21 06:11:49;;;;;;;1.80;1.13;;;12.80;99.90;;;;;;4920517;29;20230;-72
2021/10/21 06:14:16;;;;;;;1.20;1.10;;;12.80;99.90;;;;;;4915168;29;20210;-71
2021/10/21 06:16:44;;;;;;;1.17;1.10;;;12.80;99.90;;;;;;4915123;29;20292;-71
2021/10/21 06:19:12;;;;;;;1.20;1.10;;;12.80;99.90;;;;;;4908418;29;20207;-71
2021/10/21 06:21:39;;;;;;;1.00;1.00;;;12.80;99.90;;;;;;4907363;29;20222;-71
2021/10/21 06:24:06;;;;;;;1.60;1.60;;;12.80;99.90;;;;;;4915485;29;20210;-72
2021/10/21 06:26:33;;;;;;;1.42;1.20;;;12.80;99.90;;;;;;4923016;29;20209;-71
2021/10/21 06:29:00;;;;;;;1.40;1.35;;;12.80;99.90;;;;;;4933767;29;20226;-72
2021/10/21 06:31:27;;;;;;;1.23;1.23;;;12.80;99.90;;;;;;4922537;29;20262;-71
2021/10/21 06:33:53;;;;;;;3.90;1.80;;;12.90;99.90;;;;;;4915993;29;20285;-71
2021/10/21 06:36:21;;;;;;;2.20;1.33;;;13.00;99.90;;;;;;4915069;29;20217;-72
2021/10/21 06:38:48;;;;;;;1.67;1.57;;;13.10;99.90;;;;;;4915169;29;20467;-72
2021/10/21 06:41:15;;;;;;;1.38;1.38;;;13.20;99.90;;;;;;4932116;29;20915;-72
2021/10/21 06:43:42;;;;;;;2.17;1.33;;;13.10;99.90;;;;;;4935581;29;20213;-71
2021/10/21 06:46:09;;;;;;;2.42;1.40;;;13.10;99.90;;;;;;4931850;29;20217;-71
2021/10/21 06:48:36;;;;;;;1.40;1.40;;;12.90;99.90;;;;;;4934935;29;20277;-72
2021/10/21 06:51:03;;;;;;;0.93;0.93;;;12.90;99.90;;;;;;4911290;29;20598;-71
2021/10/21 06:53:31;;;;;;;1.55;1.40;;;12.80;99.90;;;;;;4914319;29;20214;-71
2021/10/21 06:55:58;;;;;;;1.98;1.75;;;12.80;99.90;;;;;;4914382;29;20207;-72
2021/10/21 06:58:24;;;;;;;1.70;1.70;;;12.70;99.90;;;;;;4914145;29;20786;-71
2021/10/21 07:00:51;;;;;;;4.13;1.33;;;12.60;99.90;;;;;;4914159;29;20900;-71
2021/10/21 07:03:18;;;;;;;4.60;1.52;;;12.60;99.90;;;;;;4915162;29;20218;-71
2021/10/21 07:05:45;;;;;;;4.20;1.67;;;12.50;99.90;;;;;;4914895;29;20210;-72
2021/10/21 07:08:13;;;;;;;1.48;1.38;;;12.50;99.90;;;;;;4914445;29;20214;-72
2021/10/21 07:10:41;;;;;;;1.50;1.40;;;12.40;99.90;;;;;;4913909;29;20245;-72
2021/10/21 07:13:08;;;;;;;1.17;1.15;;;12.40;99.90;;;;;;4914640;29;20214;-71
2021/10/21 07:15:36;;;;;;;1.40;1.15;;;12.30;99.90;;;;;;4911301;29;20214;-72
2021/10/21 07:18:03;;;;;;;3.50;2.28;;;12.20;99.90;;;;;;4922715;29;20237;-72
2021/10/21 07:20:31;;;;;;;1.42;1.33;;;12.20;99.90;;;;;;4923546;29;20232;-72
2021/10/21 07:22:57;;;;;;;1.27;1.15;;;12.20;99.90;;;;;;4927268;29;20206;-73
2021/10/21 07:25:27;;;;;;;2.30;1.20;;;12.20;99.90;;;;;;4924034;29;20218;-71
2021/10/21 07:27:55;;;;;;;1.52;1.20;;;12.20;99.90;;;;;;4923113;29;20618;-72
2021/10/21 07:30:22;;;;;;;3.30;1.30;;;12.10;99.90;;;;;;4924703;29;20242;-71
2021/10/21 07:32:49;;;;;;;1.60;1.50;;;12.00;99.90;;;;;;4916081;29;20210;-71
2021/10/21 07:35:16;;;;;;;1.23;1.20;;;12.00;99.90;;;;;;4925853;29;20269;-72
2021/10/21 07:37:43;;;;;;;1.70;1.60;;;12.00;99.90;;;;;;4936673;29;20662;-72
2021/10/21 07:40:11;;;;;;;1.10;1.10;;;12.00;99.90;;;;;;4918177;29;20202;-71
2021/10/21 07:42:38;;;;;;;1.20;1.10;;;12.00;99.90;;;;;;4928607;29;20554;-72
2021/10/21 07:45:08;;;;;;;1.95;1.60;;;12.00;99.90;;;;;;4922401;29;20220;-71
2021/10/21 07:47:35;;;;;;;1.38;1.27;;;12.00;99.90;;;;;;4924253;29;20246;-72
2021/10/21 07:50:02;;;;;;;0.73;0.73;;;12.00;99.90;;;;;;4927787;29;20226;-72
2021/10/21 07:52:29;;;;;;;1.00;1.00;;;11.90;99.90;;;;;;4927794;29;20230;-72
2021/10/21 07:54:56;;;;;;;0.93;0.93;;;11.90;99.90;;;;;;4924843;29;20221;-72
2021/10/21 07:57:23;;;;;;;1.50;1.40;;;11.80;99.90;;;;;;4927519;29;20217;-71
2021/10/21 07:59:50;;;;;;;1.00;1.00;;;11.80;99.90;;;;;;4936802;29;20289;-72
2021/10/21 08:02:19;;;;;;;1.17;1.17;;;11.80;99.90;;;;;;4926226;29;20245;-72
2021/10/21 08:04:46;;;;;;;2.35;1.30;;;11.90;99.90;;;;;;4924420;29;20206;-72
2021/10/21 08:07:13;;;;;;;2.72;1.10;;;11.90;99.90;;;;;;4928506;29;20748;-72
2021/10/21 08:09:40;;;;;;;1.65;1.30;;;11.90;99.90;;;;;;4928687;29;20233;-72
2021/10/21 08:12:08;;;;;;;1.42;1.25;;;11.80;99.90;;;;;;4919140;29;20601;-71
2021/10/21 08:14:35;;;;;;;0.93;0.93;;;11.80;99.90;;;;;;4923678;29;20221;-72
2021/10/21 08:17:02;;;;;;;0.93;0.93;;;11.80;99.90;;;;;;4917612;29;20217;-71
2021/10/21 08:19:30;;;;;;;2.03;1.92;;;11.70;99.90;;;;;;4919309;29;20203;-71
2021/10/21 08:21:58;;;;;;;1.20;1.10;;;11.60;99.90;;;;;;4935283;29;20226;-72
2021/10/21 08:24:25;;;;;;;0.85;0.85;;;11.60;99.90;;;;;;4924565;29;20208;-71
2021/10/21 08:26:53;;;;;;;1.40;1.40;;;11.50;99.90;;;;;;4925799;29;20213;-71
2021/10/21 08:29:23;;;;;;;0.90;0.90;;;11.50;99.90;;;;;;4927931;29;20209;-71
2021/10/21 08:31:53;;;;;;;1.08;1.08;;;11.50;99.90;;;;;;4922228;29;20277;-71
2021/10/21 08:34:20;;;;;;;0.88;0.88;;;11.50;99.90;;;;;;4928248;29;20687;-71
2021/10/21 08:36:49;;;;;;;0.75;0.70;;;11.50;99.90;;;;;;4923418;29;20271;-72
2021/10/21 08:39:15;;;;;;;1.10;1.10;;;11.40;99.90;;;;;;4920018;29;20214;-72
2021/10/21 08:41:43;;;;;;;0.60;0.60;;;11.30;99.90;;;;;;4925601;29;20225;-72
2021/10/21 08:44:10;;;;;;;1.10;1.00;;;11.20;99.90;;;;;;4924085;29;20238;-72
2021/10/21 08:46:38;;;;;;;0.50;0.50;;;11.20;99.90;;;;;;4930040;29;20297;-72
2021/10/21 08:49:05;;;;;;;0.40;0.40;;;11.20;99.90;;;;;;4926955;29;20214;-71
2021/10/21 08:51:34;;;;;;;0.40;0.40;;;11.10;99.90;;;;;;4923367;29;20234;-72
2021/10/21 08:54:04;;;;;;;0.60;0.60;;;11.10;99.90;;;;;;4922627;29;20684;-71
2021/10/21 08:56:31;;;;;;;0.30;0.30;;;11.00;99.90;;;;;;4923373;29;20237;-71
2021/10/21 08:58:59;;;;;;;0.30;0.30;;;11.00;99.90;;;;;;4927139;29;20210;-71
2021/10/21 09:01:34;;;;;;;0.30;0.30;;;11.00;99.90;;;;;;4920225;29;20238;-71
2021/10/21 09:04:16;;;;;;;0.20;0.20;;;10.90;99.90;;;;;;4928514;29;20213;-71
2021/10/21 09:07:55;;;;;;;0.22;0.22;;;10.90;99.90;;;;;;4923252;29;20602;-71
2021/10/21 09:09:45;;;;;;;0.50;0.20;;;10.90;99.90;;;;;;4923484;29;20210;-71
2021/10/21 09:12:13;;;;;;;0.30;0.30;;;10.90;99.90;;;;;;4924366;29;20222;-71
2021/10/21 09:14:42;;;;;;;0.63;0.30;;;10.90;99.90;;;;;;4912858;29;20216;-69
2021/10/21 09:17:10;;;;;;;0.35;0.35;;;10.90;99.90;;;;;;4922669;29;20896;-71
2021/10/21 09:19:38;;;;;;;0.85;0.30;;;10.90;99.90;;;;;;4914151;29;20275;-71
2021/10/21 09:22:07;;;;;;;1.75;0.50;;;10.90;99.90;;;;;;4912879;29;20234;-71
2021/10/21 09:24:39;;;;;;;0.98;0.90;;;11.00;99.90;;;;;;4915032;29;20278;-72
2021/10/21 09:27:09;;;;;;;0.68;0.50;;;11.10;99.90;;;;;;4926305;29;20206;-71
2021/10/21 09:29:37;;;;;;;0.73;0.73;;;11.10;99.90;;;;;;4917051;29;20306;-72
2021/10/21 09:32:10;;;;;;;1.30;0.60;;;11.20;99.90;;;;;;4914435;29;20247;-71
2021/10/21 09:34:50;;;;;;;1.00;0.60;;;11.20;99.90;;;;;;4913441;29;20687;-71
2021/10/21 09:37:19;;;;;;;0.70;0.50;;;11.10;99.90;;;;;;4911876;29;20214;-72
2021/10/21 09:39:49;;;;;;;1.55;0.90;;;11.10;99.90;;;;;;4917465;29;20613;-72
2021/10/21 09:42:18;;;;;;;4.22;0.57;;;11.20;99.90;;;;;;4922933;29;20707;-72
2021/10/21 09:44:46;;;;;;;1.08;0.52;;;11.20;99.90;;;;;;4915635;29;20206;-71
2021/10/21 09:47:18;;;;;;;0.88;0.70;;;11.20;99.90;;;;;;4913728;29;20213;-72
2021/10/21 09:49:53;;;;;;;1.70;0.60;;;11.30;99.90;;;;;;4913466;29;20206;-71
2021/10/21 09:52:22;;;;;;;2.25;0.98;;;11.30;99.90;;;;;;4918759;29;20715;-71
2021/10/21 09:54:50;;;;;;;3.60;0.73;;;11.30;99.90;;;;;;4922939;29;20210;-72
2021/10/21 09:57:18;;;;;;;2.17;1.20;;;11.30;99.90;;;;;;4922145;29;20258;-72
2021/10/21 09:59:59;;;;;;;0.90;0.90;;;11.40;99.90;;;;;;4923560;29;20671;-72
2021/10/21 10:02:31;;;;;;;2.50;1.95;;;11.50;99.90;;;;;;4922267;29;20778;-72
2021/10/21 10:05:01;;;;;;;1.20;1.10;;;11.50;99.90;;;;;;4929413;29;20213;-72
2021/10/21 10:07:28;;;;;;;1.02;0.80;;;11.50;99.90;;;;;;4924478;29;20236;-73
2021/10/21 10:09:59;;;;;;;1.38;0.70;;;11.60;99.90;;;;;;4928086;29;20671;-72
2021/10/21 10:12:30;;;;;;;3.75;1.05;;;11.60;99.90;;;;;;4922470;29;20226;-72
2021/10/21 10:14:57;;;;;;;0.80;0.70;;;11.60;99.90;;;;;;4925907;29;20293;-72
2021/10/21 10:17:27;;;;;;;2.72;1.30;;;11.60;99.90;;;;;;4926552;29;20210;-72
2021/10/21 10:19:54;;;;;;;1.77;0.93;;;11.60;99.90;;;;;;4918087;29;20242;-72
2021/10/21 10:22:26;;;;;;;2.50;1.38;;;11.60;99.90;;;;;;4926028;29;20226;-72
2021/10/21 10:24:54;;;;;;;1.38;0.73;;;11.60;99.90;;;;;;4928512;29;20214;-72
2021/10/21 10:27:24;;;;;;;1.00;0.75;;;11.60;99.90;;;;;;4922113;29;20202;-72
2021/10/21 10:29:52;;;;;;;3.10;2.92;;;11.60;99.90;;;;;;4921755;29;20211;-72
2021/10/21 10:32:40;;;;;;;2.92;0.60;;;11.60;99.90;;;;;;4928028;29;20223;-72
2021/10/21 10:35:08;;;;;;;3.50;1.08;;;11.50;99.90;;;;;;4923362;29;20211;-72
2021/10/21 10:37:47;;;;;;;1.13;1.13;;;11.50;99.90;;;;;;4926512;29;20214;-72
2021/10/21 10:40:14;;;;;;;1.05;1.05;;;11.50;99.90;;;;;;4922358;29;20225;-72
2021/10/21 10:42:59;;;;;;;0.90;0.90;;;11.50;99.90;;;;;;4928355;29;20309;-72
2021/10/21 10:45:49;;;;;;;1.10;1.00;;;11.40;99.90;;;;;;4927366;29;20206;-72
2021/10/21 10:48:33;;;;;;;3.10;1.55;;;11.30;99.90;;;;;;4916230;29;20218;-72
2021/10/21 10:50:59;;;;;;;1.67;1.67;;;11.30;99.90;;;;;;4924157;29;20234;-72
2021/10/21 10:53:46;;;;;;;1.83;1.73;;;11.30;99.90;;;;;;4924018;29;20211;-73
2021/10/21 10:56:50;;;;;;;2.30;2.20;;;11.30;99.90;;;;;;4928054;29;20304;-72
2021/10/21 10:59:32;;;;;;;1.25;1.25;;;11.10;99.90;;;;;;4927420;29;20209;-72
2021/10/21 11:02:02;;;;;;;1.75;1.65;;;11.00;99.90;;;;;;4924635;29;20257;-72
2021/10/21 11:04:59;;;;;;;1.25;1.20;;;11.00;99.90;;;;;;4924791;29;20207;-72
2021/10/21 11:07:28;;;;;;;1.90;1.15;;;11.10;99.90;;;;;;4930754;29;20217;-72
2021/10/21 11:10:33;;;;;;;1.23;1.23;;;11.10;99.90;;;;;;4925388;29;20217;-72
2021/10/21 11:13:00;;;;;;;1.27;1.20;;;11.10;99.90;;;;;;4919565;29;20265;-70
2021/10/21 11:15:41;;;;;;;3.20;1.35;;;11.10;99.90;;;;;;4925053;29;20574;-71
2021/10/21 11:18:09;;;;;;;2.42;1.20;;;11.20;99.90;;;;;;4926669;29;20663;-71
2021/10/21 11:20:40;;;;;;;2.40;1.75;;;11.30;99.90;;;;;;4915673;29;20221;-72
2021/10/21 11:23:28;;;;;;;2.42;1.50;;;11.30;99.90;;;;;;4923222;29;20210;-72
2021/10/21 11:26:01;;;;;;;1.15;0.80;;;11.40;99.90;;;;;;4922335;29;20218;-72
2021/10/21 11:28:28;;;;;;;3.78;1.52;;;11.40;99.90;;;;;;4920798;29;20293;-73
2021/10/21 11:30:56;;;;;;;2.25;1.08;;;11.50;99.90;;;;;;4923851;29;20234;-72
2021/10/21 11:33:26;;;;;;;2.08;0.98;;;11.70;99.90;;;;;;4923173;29;20326;-73
2021/10/21 11:35:53;;;;;;;1.30;1.30;;;11.80;99.90;;;;;;4926643;29;20222;-73
2021/10/21 11:38:21;;;;;;;1.10;1.00;;;11.90;99.90;;;;;;4924651;29;20210;-72
2021/10/21 11:40:50;;;;;;;1.20;1.10;;;12.00;99.90;;;;;;4920673;29;20231;-72
2021/10/21 11:43:22;;;;;;;1.45;1.35;;;12.00;99.90;;;;;;4925193;29;20692;-72
2021/10/21 11:45:52;;;;;;;3.70;1.70;;;11.90;99.90;;;;;;4920491;29;20633;-73
2021/10/21 11:48:20;;;;;;;3.33;1.30;;;11.90;99.90;;;;;;4916175;29;20218;-72
2021/10/21 11:50:49;;;;;;;1.42;0.98;;;11.90;99.90;;;;;;4922554;29;20241;-72
2021/10/21 11:53:18;;;;;;;3.92;1.63;;;11.90;99.90;;;;;;4924161;29;20815;-72
2021/10/21 11:55:46;;;;;;;9.68;3.55;;;11.80;99.90;;;;;;4921298;29;20206;-74
2021/10/21 11:58:15;;;;;;;3.22;1.90;;;11.70;99.90;;;;;;4931544;29;20686;-72
2021/10/21 12:00:44;;;;;;;5.15;3.30;;;11.50;99.90;;;;;;4919278;29;20680;-72
2021/10/21 12:03:11;;;;;;;2.25;2.17;;;11.50;99.90;;;;;;4918376;29;20215;-72
2021/10/21 12:05:41;;;;;;;3.28;1.60;;;11.50;99.90;;;;;;4915690;29;20209;-72
2021/10/21 12:08:10;;;;;;;4.07;1.58;;;11.50;99.90;;;;;;4923970;29;20209;-72
2021/10/21 12:10:43;;;;;;;1.15;0.65;;;11.50;99.90;;;;;;4913078;29;20281;-73
2021/10/21 12:13:21;;;;;;;1.40;1.30;;;11.50;99.90;;;;;;4922727;29;20647;-73
2021/10/21 12:15:50;;;;;;;1.80;1.60;;;11.50;99.90;;;;;;4927655;29;20262;-73
2021/10/21 12:18:19;;;;;;;2.75;1.35;;;11.40;99.90;;;;;;4923309;29;20214;-72
2021/10/21 12:20:49;;;;;;;1.40;1.38;;;11.40;99.90;;;;;;4919854;29;20232;-73
2021/10/21 12:23:27;;;;;;;3.13;1.25;;;11.30;99.90;;;;;;4923819;29;20258;-73
2021/10/21 12:25:56;;;;;;;3.05;1.80;;;11.10;99.90;;;;;;4928066;29;20582;-72
2021/10/21 12:28:35;;;;;;;2.47;1.20;;;11.00;99.90;;;;;;4924697;29;20561;-73
2021/10/21 12:31:19;;;;;;;1.33;1.13;;;11.00;99.90;;;;;;4924842;29;20254;-73
2021/10/21 12:33:54;;;;;;;2.03;1.10;;;10.90;99.90;;;;;;4923907;29;20301;-73
2021/10/21 12:36:22;;;;;;;4.45;1.00;;;10.90;99.90;;;;;;4926482;29;20214;-72
2021/10/21 12:38:52;;;;;;;5.40;1.25;;;10.90;99.90;;;;;;4918236;29;20217;-73
2021/10/21 12:41:19;;;;;;;4.45;1.00;;;11.00;99.90;;;;;;4925196;29;20241;-72
2021/10/21 12:44:00;;;;;;;1.25;0.75;;;10.90;99.90;;;;;;4924240;29;20210;-73
2021/10/21 12:46:28;;;;;;;2.47;1.20;;;10.90;99.90;;;;;;4923607;29;20675;-72
2021/10/21 12:49:08;;;;;;;2.05;1.15;;;10.90;99.90;;;;;;4919667;29;20214;-73
2021/10/21 12:51:35;;;;;;;1.20;1.10;;;10.90;99.90;;;;;;4931784;29;20229;-72
2021/10/21 12:54:03;;;;;;;1.10;1.05;;;10.80;99.90;;;;;;4925937;29;20690;-72
2021/10/21 12:56:30;;;;;;;2.80;1.48;;;10.70;99.90;;;;;;4934889;29;20213;-73
2021/10/21 12:59:02;;;;;;;2.83;1.35;;;10.70;99.90;;;;;;4927503;29;20210;-73
2021/10/21 13:01:29;;;;;;;5.63;1.25;;;10.70;99.90;;;;;;4925289;29;20242;-72
2021/10/21 13:03:56;;;;;;;1.20;1.10;;;10.70;99.90;;;;;;4925973;29;20214;-72
2021/10/21 13:06:24;;;;;;;2.30;1.77;;;10.60;99.90;;;;;;4933299;29;20269;-72
2021/10/21 13:08:54;;;;;;;2.45;1.20;;;10.50;99.90;;;;;;4926903;29;20219;-73
2021/10/21 13:11:23;;;;;;;3.70;1.02;;;10.50;99.90;;;;;;4923927;29;20228;-72
2021/10/21 13:13:59;;;;;;;1.05;0.88;;;10.40;99.90;;;;;;4918007;29;20216;-72
2021/10/21 13:16:26;;;;;;;1.00;1.00;;;10.40;99.90;;;;;;4904518;29;20679;-73
2021/10/21 13:18:59;;;;;;;4.40;1.38;;;10.40;99.90;;;;;;4909981;29;20629;-72
2021/10/21 13:21:26;;;;;;;2.88;1.00;;;10.30;99.90;;;;;;4916483;29;20230;-73
2021/10/21 13:23:52;;;;;;;1.85;1.20;;;10.20;99.90;;;;;;4915818;29;20214;-72
2021/10/21 13:26:19;;;;;;;1.52;1.15;;;10.20;99.90;;;;;;4912867;29;20223;-72
2021/10/21 13:28:49;;;;;;;5.72;2.80;;;10.20;99.90;;;;;;4925052;29;20249;-72
2021/10/21 13:31:16;;;;;;;6.90;3.67;;;10.10;99.90;;;;;;4918728;29;20231;-72
2021/10/21 13:33:42;;;;;;;5.53;1.55;;;10.10;99.90;;;;;;4916132;29;20214;-72
2021/10/21 13:36:09;;;;;;;6.03;3.20;;;10.10;99.90;;;;;;4915988;29;20203;-72
2021/10/21 13:38:36;;;;;;;2.50;2.40;;;10.10;99.90;;;;;;4914948;29;20206;-72
2021/10/21 13:41:02;;;;;;;4.53;1.73;;;10.00;99.90;;;;;;4918121;29;20257;-72
2021/10/21 13:43:29;;;;;;;1.55;1.42;;;10.00;99.90;;;;;;4923472;29;20529;-71
2021/10/21 13:45:57;;;;;;;2.67;1.63;;;9.90;99.90;;;;;;4917873;29;20210;-72
2021/10/21 13:48:25;;;;;;;6.70;2.58;;;9.90;99.90;;;;;;4917681;29;20218;-72
2021/10/21 13:50:52;;;;;;;3.33;2.30;;;9.90;99.90;;;;;;4922398;29;20227;-72
2021/10/21 13:53:19;;;;;;;2.03;1.77;;;9.90;99.90;;;;;;4916043;29;20771;-72
2021/10/21 13:55:46;;;;;;;1.88;1.05;;;9.80;99.90;;;;;;4915657;29;20207;-72
2021/10/21 13:58:14;;;;;;;2.60;1.00;;;9.80;99.90;;;;;;4915329;29;20214;-72
2021/10/21 14:00:41;;;;;;;2.75;2.22;;;9.80;99.90;;;;;;4914599;29;20286;-72
2021/10/21 14:03:10;;;;;;;2.15;1.50;;;9.80;99.90;;;;;;4915240;29;20202;-72
2021/10/21 14:05:37;;;;;;;3.72;1.70;;;9.80;99.90;;;;;;4915923;29;20620;-72
2021/10/21 14:08:06;;;;;;;6.68;1.70;;;9.80;99.90;;;;;;4921688;29;20590;-72
2021/10/21 14:10:33;;;;;;;1.77;1.23;;;9.80;99.90;;;;;;4931445;29;20237;-72
2021/10/21 14:13:00;;;;;;;2.30;2.00;;;9.80;99.90;;;;;;4921894;29;20246;-71
2021/10/21 14:15:28;;;;;;;8.10;2.10;;;9.80;99.90;;;;;;4915251;29;20210;-72
2021/10/21 14:17:54;;;;;;;1.50;1.33;;;9.70;99.90;;;;;;4914646;29;20211;-71
2021/10/21 14:20:23;;;;;;;3.55;1.58;;;9.70;99.90;;;;;;4910967;29;20215;-72
2021/10/21 14:22:50;;;;;;;1.10;1.10;;;9.70;99.90;;;;;;4914719;29;20602;-72
2021/10/21 14:25:17;;;;;;;2.28;1.67;;;9.70;99.90;;;;;;4914386;29;20262;-71
2021/10/21 14:27:44;;;;;;;1.75;1.40;;;9.60;99.90;;;;;;4912762;29;20214;-71
2021/10/21 14:30:11;;;;;;;2.15;1.55;;;9.60;99.90;;;;;;4914777;29;20683;-72
2021/10/21 14:32:38;;;;;;;1.95;1.30;;;9.60;99.90;;;;;;4914378;29;20234;-72
2021/10/21 14:35:07;;;;;;;3.45;1.35;;;9.60;99.90;;;;;;4914868;29;20218;-72
2021/10/21 14:37:38;;;;;;;6.50;3.80;;;9.50;99.90;;;;;;4914634;29;20217;-72
2021/10/21 14:40:07;;;;;;;1.70;1.60;;;9.50;99.90;;;;;;4914500;29;20639;-72
2021/10/21 14:42:33;;;;;;;4.20;1.52;;;9.40;99.90;;;;;;4921662;29;20376;-72
2021/10/21 14:45:00;;;;;;;1.63;1.52;;;9.40;99.90;;;;;;4927954;29;20225;-72
2021/10/21 14:47:27;;;;;;;5.90;1.42;;;9.40;99.90;;;;;;4918929;29;20213;-72
2021/10/21 14:49:54;;;;;;;2.47;0.80;;;9.50;99.90;;;;;;4925804;29;20210;-72
2021/10/21 14:52:20;;;;;;;2.55;1.23;;;9.50;99.90;;;;;;4920169;29;20230;-72
2021/10/21 14:54:48;;;;;;;1.27;1.20;;;9.50;99.90;;;;;;4917513;29;20214;-72
2021/10/21 14:57:15;;;;;;;5.03;1.65;;;9.60;99.90;;;;;;4916695;29;20218;-72
2021/10/21 14:59:42;;;;;;;3.58;1.85;;;9.50;99.90;;;;;;4922423;29;20265;-72
2021/10/21 15:02:09;;;;;;;2.65;1.35;;;9.50;99.90;;;;;;4922313;29;20230;-71
2021/10/21 15:04:37;;;;;;;3.55;0.90;;;9.50;99.90;;;;;;4929358;29;20297;-72
2021/10/21 15:10:25;;;;;;;3.28;1.08;;;9.50;99.90;;;;;;4921300;29;20205;-71
2021/10/21 15:13:00;;;;;;;4.50;0.90;;;9.50;99.90;;;;;;4914963;29;20225;-72
2021/10/21 15:23:40;;;;;;;1.40;1.02;;;9.40;99.90;;;;;;4914880;29;20357;-70
2021/10/21 15:26:08;;;;;;;0.85;0.85;;;9.40;99.90;;;;;;4914741;29;20578;-70
2021/10/21 15:28:36;;;;;;;1.75;1.20;;;9.40;99.90;;;;;;4914654;29;20214;-72
2021/10/21 15:31:03;;;;;;;1.70;1.20;;;9.30;99.90;;;;;;4914948;29;20252;-71
2021/10/21 15:33:29;;;;;;;1.95;1.75;;;9.30;99.90;;;;;;4913187;29;20286;-71
2021/10/21 15:35:56;;;;;;;0.85;0.85;;;9.30;99.90;;;;;;4913998;29;20683;-71
2021/10/21 15:38:27;;;;;;;1.58;1.33;;;9.20;99.90;;;;;;4914004;29;20216;-71
2021/10/21 15:40:55;;;;;;;1.20;1.20;;;9.20;99.90;;;;;;4913698;29;20704;-71
2021/10/21 15:43:24;;;;;;;2.70;1.58;;;9.20;99.90;;;;;;4914128;29;20203;-71
2021/10/21 15:45:54;;;;;;;1.83;1.73;;;9.20;99.90;;;;;;4915464;29;20297;-71
2021/10/21 15:48:31;;;;;;;2.15;0.90;;;9.10;99.90;;;;;;4919596;29;20206;-71
2021/10/21 15:51:14;;;;;;;1.35;1.25;;;9.20;99.90;;;;;;4913867;29;20226;-72
2021/10/21 16:10:22;;;;;;;2.10;1.40;;;9.10;99.90;;;;;;4917049;29;20298;-72
2021/10/21 16:12:49;;;;;;;1.15;1.15;;;9.00;99.90;;;;;;4916959;29;20269;-71
2021/10/21 16:15:17;;;;;;;3.95;1.33;;;9.00;99.90;;;;;;4917419;29;20207;-71
2021/10/21 16:17:53;;;;;;;3.15;1.25;;;9.00;99.90;;;;;;4919034;29;20207;-72
2021/10/21 16:20:24;;;;;;;3.30;0.95;;;8.90;99.90;;;;;;4921219;29;20293;-71
2021/10/21 16:22:54;;;;;;;1.38;0.98;;;8.90;99.90;;;;;;4916933;29;20274;-71
2021/10/21 16:25:44;;;;;;;1.83;1.20;;;8.80;99.90;;;;;;4917452;29;20305;-71
2021/10/21 16:28:13;;;;;;;1.58;1.05;;;8.80;99.90;;;;;;4916744;29;20206;-71
2021/10/21 16:30:42;;;;;;;2.10;1.00;;;8.70;99.90;;;;;;4915897;29;20715;-71
2021/10/21 16:33:09;;;;;;;1.40;1.30;;;8.70;99.90;;;;;;4917001;29;20713;-71
2021/10/21 16:35:38;;;;;;;0.75;0.75;;;8.70;99.90;;;;;;4938832;23;20756;-71
2021/10/21 16:38:06;;;;;;;1.75;0.80;;;8.70;99.90;;;;;;4943335;28;20270;-72
2021/10/21 16:40:35;;;;;;;2.38;0.95;;;8.60;99.90;;;;;;4945323;29;20284;-72
2021/10/21 16:43:02;;;;;;;5.07;1.17;;;8.60;99.90;;;;;;4953052;29;20301;-73
2021/10/21 16:45:29;;;;;;;7.03;1.15;;;8.50;99.90;;;;;;4936751;29;20238;-73
2021/10/21 16:47:58;;;;;;;1.75;1.00;;;8.50;99.90;;;;;;4949733;28;20644;-73
2021/10/21 16:50:24;;;;;;;0.95;0.95;;;8.50;99.90;;;;;;4959409;28;20612;-74
2021/10/21 16:52:51;;;;;;;2.40;1.40;;;8.40;99.90;;;;;;4953158;29;20244;-73
2021/10/21 16:55:18;;;;;;;2.30;1.15;;;8.40;99.90;;;;;;4954005;29;20233;-73
2021/10/21 16:57:44;;;;;;;5.32;0.98;;;8.30;99.90;;;;;;4953780;29;20212;-73
2021/10/21 17:00:12;;;;;;;1.38;1.23;;;8.30;99.90;;;;;;4950272;29;20212;-72
2021/10/21 17:02:39;;;;;;;3.40;1.10;;;8.30;99.90;;;;;;4955051;29;20691;-72
2021/10/21 17:05:09;;;;;;;3.90;0.70;;;8.20;99.90;;;;;;4955284;29;20209;-72
2021/10/21 17:07:38;;;;;;;1.75;1.35;;;8.20;99.90;;;;;;4962283;28;20832;-73
2021/10/21 17:10:05;;;;;;;2.70;1.20;;;8.10;99.90;;;;;;4960704;28;20291;-73
2021/10/21 17:12:32;;;;;;;5.22;1.50;;;8.10;99.90;;;;;;4968013;28;20279;-73
2021/10/21 17:14:59;;;;;;;2.72;1.20;;;8.10;99.90;;;;;;4954574;29;20209;-74
2021/10/21 17:17:27;;;;;;;5.72;1.50;;;8.10;99.90;;;;;;4954261;29;20464;-74
2021/10/21 17:19:53;;;;;;;3.53;1.27;;;8.00;99.90;;;;;;4954833;29;20213;-73
2021/10/21 17:22:21;;;;;;;5.47;1.15;;;8.00;99.90;;;;;;4954532;28;20217;-73
2021/10/21 17:24:48;;;;;;;7.32;2.03;;;8.00;99.90;;;;;;4954056;29;20205;-74
2021/10/21 17:27:15;;;;;;;5.55;2.05;;;8.00;99.90;;;;;;4953692;29;20225;-73
2021/10/21 17:29:41;;;;;;;2.03;1.10;;;8.00;99.90;;;;;;4962039;28;20201;-73